Time;durP1;ratioP1;P1;durP2;ratioP2;P2;SDS_P1;SDS_P2;PMS_P1;PMS_P2;Temp;Humidity;BMP_temperature;BMP_pressure;BME280_temperature;BME280_humidity;BME280_pressure;Samples;Min_cycle;Max_cycle;Signal;HPM_P1;HPM_P2
2021/11/12 00:02:44;;;;;;;70.87;34.67;;;;;;;7.05;100.00;101240.23;3430456;84;99165;-88
2021/11/12 00:13:05;;;;;;;73.75;36.25;;;;;;;7.02;100.00;101235.41;3429376;84;99144;-88
2021/11/12 00:18:01;;;;;;;74.82;35.25;;;;;;;7.00;100.00;101221.83;3388790;85;99353;-87
2021/11/12 00:23:02;;;;;;;80.62;37.15;;;;;;;6.98;100.00;101218.62;3383371;85;99081;-88
2021/11/12 00:28:03;;;;;;;75.40;37.55;;;;;;;6.96;100.00;101218.14;3393742;86;99057;-88
2021/11/12 00:33:18;;;;;;;72.45;37.40;;;;;;;6.93;100.00;101214.14;3375259;85;99049;-87
2021/11/12 00:38:14;;;;;;;67.67;34.97;;;;;;;6.91;100.00;101210.94;3382859;85;99082;-88
2021/11/12 00:43:29;;;;;;;71.35;34.38;;;;;;;6.90;100.00;101224.40;3358264;85;99054;-88
2021/11/12 00:48:19;;;;;;;73.77;34.47;;;;;;;6.88;100.00;101224.50;3382476;84;98845;-88
2021/11/12 00:58:19;;;;;;;72.73;32.07;;;;;;;6.87;100.00;101234.63;3391831;84;99437;-87
2021/11/12 01:03:20;;;;;;;74.03;33.07;;;;;;;6.85;100.00;101241.01;3395992;85;99079;-86
2021/11/12 01:08:21;;;;;;;77.90;33.77;;;;;;;6.85;100.00;101231.98;3390405;84;99086;-87
2021/11/12 01:13:24;;;;;;;74.20;32.67;;;;;;;6.84;100.00;101236.67;3387132;84;98742;-88
2021/11/12 01:18:25;;;;;;;66.37;29.80;;;;;;;6.84;100.00;101242.70;3336995;86;99330;-87
2021/11/12 01:23:26;;;;;;;75.70;32.73;;;;;;;6.82;100.00;101236.19;3385459;85;99291;-88
2021/11/12 01:28:28;;;;;;;69.00;30.67;;;;;;;6.82;100.00;101223.87;3393013;85;99340;-88
2021/11/12 01:33:30;;;;;;;63.50;30.20;;;;;;;6.84;100.00;101222.18;3387041;85;99458;-85
2021/11/12 01:38:31;;;;;;;67.27;31.73;;;;;;;6.85;100.00;101234.72;3386648;85;99030;-88
2021/11/12 01:43:42;;;;;;;71.70;31.93;;;;;;;6.85;100.00;101225.96;3378788;85;99122;-87
2021/11/12 02:04:10;;;;;;;63.83;28.37;;;;;;;6.85;100.00;101223.23;3395987;85;98969;-87
2021/11/12 02:09:20;;;;;;;66.50;29.00;;;;;;;6.85;100.00;101230.63;3394210;85;99015;-87
2021/11/12 02:14:20;;;;;;;68.83;29.07;;;;;;;6.87;100.00;101222.31;3329100;87;99133;-88
2021/11/12 02:19:22;;;;;;;72.13;29.00;;;;;;;6.89;100.00;101219.25;3399250;85;31896;-88
2021/11/12 02:24:23;;;;;;;72.12;27.45;;;;;;;6.88;100.00;101213.55;3385421;84;98956;-88
2021/11/12 02:29:27;;;;;;;70.43;28.27;;;;;;;6.88;100.00;101214.33;3396861;84;98730;-88
2021/11/12 02:34:28;;;;;;;64.70;27.90;;;;;;;6.91;100.00;101224.63;3334253;85;99069;-88
2021/11/12 02:39:29;;;;;;;63.77;27.70;;;;;;;6.92;100.00;101222.70;3410594;84;99039;-88
2021/11/12 02:44:34;;;;;;;69.67;27.77;;;;;;;6.92;100.00;101231.70;3402669;84;99226;-88
2021/11/12 02:49:32;;;;;;;62.50;25.93;;;;;;;6.92;100.00;101217.23;3388033;85;33557;-88
2021/11/12 02:54:34;;;;;;;68.77;26.87;;;;;;;6.92;100.00;101219.97;3341641;85;99200;-88
2021/11/12 02:59:36;;;;;;;70.60;28.00;;;;;;;6.95;100.00;101223.39;3393150;85;98989;-88
2021/11/12 03:04:37;;;;;;;69.37;27.13;;;;;;;6.95;100.00;101224.20;3398028;85;99116;-88
2021/11/12 03:09:38;;;;;;;71.23;31.87;;;;;;;6.97;100.00;101228.77;3398572;85;99438;-88
2021/11/12 03:14:38;;;;;;;79.67;29.27;;;;;;;7.00;100.00;101228.66;3390836;84;99039;-88
2021/11/12 03:19:40;;;;;;;81.13;30.57;;;;;;;6.98;100.00;101220.78;3394962;85;51444;-87
2021/11/12 03:24:48;;;;;;;81.53;31.53;;;;;;;6.99;100.00;101229.80;3378878;85;98901;-87
2021/11/12 03:59:47;;;;;;;78.07;31.77;;;;;;;6.99;100.00;101233.33;3387627;85;99415;-88
2021/11/12 04:01:47;;;;;;;76.40;30.37;;;;;;;6.99;100.00;101231.17;3369292;84;98933;-88
2021/11/12 04:07:10;;;;;;;76.57;30.85;;;;;;;6.97;100.00;101231.50;3388609;84;98824;-88
2021/11/12 05:57:50;;;;;;;84.07;30.03;;;;;;;6.98;100.00;101265.94;3404610;84;99069;-88
2021/11/12 06:02:51;;;;;;;78.45;31.93;;;;;;;6.98;100.00;101262.41;3401625;85;99413;-89
2021/11/12 06:07:52;;;;;;;85.27;31.00;;;;;;;6.95;100.00;101262.52;3406218;84;49428;-88
2021/11/12 06:12:53;;;;;;;84.07;30.77;;;;;;;6.95;100.00;101267.17;3387585;84;98907;-89
2021/11/12 06:17:54;;;;;;;73.10;27.87;;;;;;;6.93;100.00;101268.87;3403551;84;98945;-89
2021/11/12 06:22:54;;;;;;;70.95;28.73;;;;;;;6.94;100.00;101266.39;3385151;85;99063;-87
2021/11/12 06:27:55;;;;;;;81.13;29.50;;;;;;;6.97;100.00;101280.76;3394270;84;99047;-89
2021/11/12 06:32:56;;;;;;;75.93;28.47;;;;;;;6.98;100.00;101279.62;3384925;85;99081;-88
2021/11/12 06:37:57;;;;;;;80.17;31.33;;;;;;;7.00;100.00;101278.74;3394710;85;28801;-89
2021/11/12 06:43:07;;;;;;;90.70;31.97;;;;;;;7.02;100.00;101279.75;3332779;85;99435;-89
2021/11/12 06:53:26;;;;;;;92.00;31.70;;;;;;;7.01;100.00;101295.95;3325562;87;99136;-89
2021/11/12 06:58:29;;;;;;;87.07;30.13;;;;;;;6.99;100.00;101286.69;3332553;85;99101;-89
2021/11/12 07:03:30;;;;;;;88.30;31.23;;;;;;;7.03;100.00;101282.75;3384162;85;101606;-90
2021/11/12 07:08:31;;;;;;;91.20;29.40;;;;;;;7.04;100.00;101282.39;3339508;87;99290;-89
2021/11/12 07:13:32;;;;;;;80.37;30.10;;;;;;;7.05;100.00;101290.05;3393248;85;98991;-89
2021/11/12 07:18:33;;;;;;;84.00;29.10;;;;;;;7.06;100.00;101287.55;3336212;87;99551;-89
2021/11/12 07:23:33;;;;;;;84.25;29.85;;;;;;;7.10;100.00;101296.70;3328102;86;99667;-90
2021/11/12 07:28:34;;;;;;;85.60;30.67;;;;;;;7.12;100.00;101293.05;3403294;85;99109;-89
2021/11/12 07:33:36;;;;;;;75.83;28.03;;;;;;;7.15;100.00;101297.29;3399430;85;99580;-88
2021/11/12 07:38:50;;;;;;;86.23;31.17;;;;;;;7.22;100.00;101312.64;3404343;85;99002;-89
2021/11/12 07:44:13;;;;;;;78.37;29.48;;;;;;;7.27;100.00;101300.67;3396242;84;99108;-90
2021/11/12 07:49:09;;;;;;;89.93;34.30;;;;;;;7.29;100.00;101303.88;3401844;85;98936;-88
2021/11/12 07:54:10;;;;;;;79.50;30.50;;;;;;;7.31;100.00;101307.09;3398259;85;98854;-88
2021/11/12 07:59:11;;;;;;;83.87;30.80;;;;;;;7.30;100.00;101302.17;3387494;85;98169;-88
2021/11/12 08:04:12;;;;;;;85.37;30.63;;;;;;;7.29;100.00;101300.58;3384176;84;99067;-88
2021/11/12 08:09:15;;;;;;;79.47;31.63;;;;;;;7.32;100.00;101299.11;3387352;85;98988;-88
2021/11/12 08:14:23;;;;;;;80.53;30.73;;;;;;;7.33;100.00;101287.02;3377566;85;98690;-88
2021/11/12 08:19:23;;;;;;;93.03;34.90;;;;;;;7.32;100.00;101294.42;3390792;85;98709;-87
2021/11/12 08:24:45;;;;;;;104.30;37.13;;;;;;;7.35;100.00;101286.92;3381994;85;99215;-87
2021/11/12 08:35:17;;;;;;;106.00;39.42;;;;;;;7.37;100.00;101290.70;3345546;86;99419;-88
2021/11/12 08:40:21;;;;;;;91.65;34.10;;;;;;;7.42;100.00;101294.61;3366221;86;99471;-87
2021/11/12 08:45:24;;;;;;;95.65;36.00;;;;;;;7.45;100.00;101296.11;3383462;85;99290;-85
2021/11/12 08:50:24;;;;;;;90.80;34.53;;;;;;;7.51;100.00;101287.91;3388525;85;98946;-87
2021/11/12 08:55:27;;;;;;;89.75;32.85;;;;;;;7.50;100.00;101288.24;3388960;85;99040;-87
2021/11/12 09:00:27;;;;;;;69.87;27.53;;;;;;;7.54;100.00;101286.44;3382633;85;98869;-87
2021/11/12 09:05:29;;;;;;;80.90;31.10;;;;;;;7.58;100.00;101273.69;3386611;85;99695;-87
2021/11/12 09:10:32;;;;;;;73.60;29.37;;;;;;;7.63;100.00;101282.48;3396564;85;98225;-85
2021/11/12 09:15:33;;;;;;;73.30;29.98;;;;;;;7.67;100.00;101279.86;3391293;85;99140;-87
2021/11/12 09:20:34;;;;;;;97.47;37.13;;;;;;;7.74;100.00;101274.08;3384433;85;99008;-87
2021/11/12 09:25:35;;;;;;;103.47;38.25;;;;;;;7.79;100.00;101273.86;3360136;86;98474;-87
2021/11/12 09:30:35;;;;;;;86.03;34.77;;;;;;;7.82;100.00;101274.58;3381538;85;99308;-85
2021/11/12 09:35:37;;;;;;;90.27;35.60;;;;;;;7.87;100.00;101270.81;3385277;84;99046;-87
2021/11/12 09:40:38;;;;;;;85.53;35.40;;;;;;;7.91;100.00;101266.27;3304375;86;99026;-88
2021/11/12 09:45:40;;;;;;;84.17;34.13;;;;;;;7.98;100.00;101268.68;3389593;85;99001;-86
2021/11/12 09:50:42;;;;;;;83.57;31.20;;;;;;;8.05;100.00;101265.36;3385373;85;98970;-87
2021/11/12 09:55:43;;;;;;;89.53;36.17;;;;;;;8.08;100.00;101268.22;3385257;84;98911;-85
2021/11/12 10:00:44;;;;;;;79.07;31.73;;;;;;;8.08;100.00;101262.73;3391878;84;98946;-86
2021/11/12 10:05:48;;;;;;;83.90;33.70;;;;;;;8.12;100.00;101254.07;3341442;86;98969;-84
2021/11/12 10:10:53;;;;;;;77.03;32.00;;;;;;;8.17;100.00;101248.92;3333783;86;99462;-86
2021/11/12 10:16:24;;;;;;;96.70;37.50;;;;;;;8.17;100.00;101242.08;3327849;86;99044;-85
2021/11/12 10:21:16;;;;;;;92.12;37.73;;;;;;;8.18;100.00;101229.40;3378401;84;99489;-85
2021/11/12 10:26:17;;;;;;;92.70;35.70;;;;;;;8.25;100.00;101233.80;3382685;85;34849;-87
2021/11/12 10:31:20;;;;;;;86.00;36.30;;;;;;;8.34;100.00;101222.72;3376295;85;99052;-86
2021/11/12 10:36:21;;;;;;;88.37;38.08;;;;;;;8.40;100.00;101216.64;3393508;85;98902;-88
2021/11/12 10:41:25;;;;;;;86.90;35.57;;;;;;;8.50;100.00;101206.58;3372002;84;98985;-87
2021/11/12 10:46:42;;;;;;;78.30;34.80;;;;;;;8.61;100.00;101198.70;3379638;85;99717;-87
2021/11/12 10:51:54;;;;;;;77.50;33.90;;;;;;;8.68;100.00;101195.58;3390309;85;99019;-87
2021/11/12 10:56:54;;;;;;;78.17;34.67;;;;;;;8.79;100.00;101195.92;3390610;85;99100;-88
2021/11/12 11:01:55;;;;;;;74.63;34.77;;;;;;;8.88;100.00;101196.59;3369139;85;98747;-87
2021/11/12 11:07:19;;;;;;;74.50;33.50;;;;;;;8.97;100.00;101198.61;3380476;85;98832;-88
2021/11/12 11:12:41;;;;;;;73.57;35.73;;;;;;;9.07;100.00;101196.20;3365070;85;98915;-87
2021/11/12 11:17:51;;;;;;;76.67;34.35;;;;;;;9.20;100.00;101182.63;3382526;85;98989;-88
2021/11/12 11:23:00;;;;;;;82.73;39.03;;;;;;;9.29;100.00;101182.48;3372309;85;99098;-88
2021/11/12 11:28:00;;;;;;;92.35;41.98;;;;;;;9.37;100.00;101165.06;3390483;85;99013;-87
2021/11/12 11:33:01;;;;;;;83.95;40.52;;;;;;;9.45;100.00;101164.91;3382779;85;99224;-86
2021/11/12 11:38:02;;;;;;;77.80;35.60;;;;;;;9.55;100.00;101161.62;3390993;85;34891;-87
2021/11/12 11:43:05;;;;;;;85.80;40.13;;;;;;;9.51;100.00;101145.64;3389678;85;98986;-87
2021/11/12 11:48:06;;;;;;;75.83;35.10;;;;;;;9.51;100.00;101152.51;3389864;85;98945;-87
2021/11/12 11:53:30;;;;;;;82.62;38.17;;;;;;;9.59;100.00;101148.00;3392872;85;99080;-87
2021/11/12 11:58:49;;;;;;;80.60;37.48;;;;;;;9.67;100.00;101153.33;3435357;84;99120;-87
2021/11/12 12:04:12;;;;;;;81.08;36.85;;;;;;;9.66;100.00;101141.30;3395509;85;99456;-87
2021/11/12 12:09:14;;;;;;;75.57;34.25;;;;;;;9.67;100.00;101128.59;3400225;85;99063;-87
2021/11/12 12:14:32;;;;;;;65.57;31.93;;;;;;;9.75;100.00;101116.61;3424666;83;99154;-88
2021/11/12 12:20:03;;;;;;;69.40;33.73;;;;;;;9.81;100.00;101117.16;3414449;85;98654;-87
2021/11/12 12:30:54;;;;;;;62.67;30.47;;;;;;;9.92;100.00;101101.72;3327981;86;99093;-85
2021/11/12 12:42:10;;;;;;;61.55;30.10;;;;;;;9.93;100.00;101096.44;3381194;84;99320;-87
2021/11/12 13:19:58;;;;;;;67.37;32.83;;;;;;;9.79;99.70;101088.64;3397081;84;98768;-87
2021/11/12 13:24:39;;;;;;;70.12;35.55;;;;;;;9.81;99.56;101085.55;3383219;84;98875;-87
2021/11/12 13:29:41;;;;;;;;;;;;;;;9.77;99.29;101088.17;3394347;84;98880;-87
2021/11/12 13:34:45;;;;;;;59.42;28.20;;;;;;;9.74;98.61;101088.91;3401005;85;84875;-87
2021/11/12 13:40:10;;;;;;;59.13;28.80;;;;;;;9.70;99.13;101086.64;3390644;84;99320;-87
2021/11/12 13:45:16;;;;;;;60.27;30.10;;;;;;;9.65;98.91;101088.27;3389711;85;98884;-87
2021/11/12 13:50:17;;;;;;;54.98;27.58;;;;;;;9.61;98.88;101076.98;3389276;84;35038;-87
2021/11/12 13:55:19;;;;;;;57.80;27.03;;;;;;;9.56;98.97;101082.17;3363002;85;98825;-87
2021/11/12 14:00:22;;;;;;;54.43;25.93;;;;;;;9.58;99.17;101079.86;3399945;84;98899;-87
2021/11/12 14:05:23;;;;;;;50.58;27.00;;;;;;;9.57;99.09;101065.91;3384168;85;98848;-87
2021/11/12 14:10:31;;;;;;;52.40;26.07;;;;;;;9.50;99.01;101074.54;3406605;85;98921;-87
2021/11/12 14:15:39;;;;;;;53.20;25.90;;;;;;;9.44;99.08;101074.58;3346332;85;98922;-87
2021/11/12 14:20:41;;;;;;;51.50;25.63;;;;;;;9.39;99.12;101072.09;3408205;84;26273;-87
2021/11/12 14:26:16;;;;;;;55.88;27.98;;;;;;;9.37;99.22;101069.70;3377545;84;98759;-87
2021/11/12 14:31:19;;;;;;;52.95;24.85;;;;;;;9.34;99.28;101062.73;3373443;84;99093;-86
2021/11/12 14:42:37;;;;;;;47.43;23.73;;;;;;;9.25;99.55;101057.42;3386108;84;98926;-87
2021/11/12 14:47:12;;;;;;;58.53;27.80;;;;;;;9.19;99.67;101056.08;3388617;85;99294;-86
2021/11/12 14:52:14;;;;;;;62.03;27.63;;;;;;;9.16;99.68;101060.11;3379381;85;98912;-86
2021/11/12 14:57:27;;;;;;;58.25;26.42;;;;;;;9.12;99.67;101058.65;3388146;84;98859;-87
2021/11/12 15:02:23;;;;;;;62.58;29.42;;;;;;;9.03;99.79;101047.58;3382090;84;98455;-87
2021/11/12 15:07:28;;;;;;;57.20;26.80;;;;;;;8.97;99.89;101048.43;3332338;86;98781;-87
2021/11/12 15:12:28;;;;;;;49.40;25.45;;;;;;;8.91;99.89;101048.46;3317668;86;98759;-86
2021/11/12 15:17:30;;;;;;;53.27;26.90;;;;;;;8.86;100.00;101043.22;3374323;85;98977;-86
2021/11/12 15:27:48;;;;;;;50.28;24.07;;;;;;;8.81;100.00;101033.86;3393037;85;99089;-86
2021/11/12 15:32:50;;;;;;;53.42;25.50;;;;;;;8.75;100.00;101043.50;3370872;85;98811;-87
2021/11/12 15:38:00;;;;;;;55.07;25.70;;;;;;;8.67;100.00;101035.42;3388407;85;99130;-87
2021/11/12 15:48:16;;;;;;;52.63;27.13;;;;;;;8.58;100.00;101036.13;3354447;86;99317;-88
2021/11/12 15:53:22;;;;;;;63.87;31.53;;;;;;;8.51;100.00;101040.83;3378662;84;99478;-88
2021/11/12 15:58:42;;;;;;;59.63;29.93;;;;;;;8.48;100.00;101036.62;3389658;85;99113;-88
2021/11/12 16:04:18;;;;;;;62.78;30.92;;;;;;;8.44;100.00;101023.36;3383144;85;99617;-87
2021/11/12 16:14:09;;;;;;;69.22;32.00;;;;;;;8.35;100.00;101024.88;3384464;85;98726;-89
2021/11/12 16:19:21;;;;;;;93.63;43.93;;;;;;;8.30;100.00;101020.23;3392535;85;99276;-88
2021/11/12 16:29:38;;;;;;;105.55;42.93;;;;;;;8.26;100.00;101024.23;3387959;85;99829;-88
2021/11/12 16:34:49;;;;;;;99.07;43.10;;;;;;;8.23;100.00;101024.92;3380526;85;99622;-87
2021/11/12 16:40:03;;;;;;;108.17;44.73;;;;;;;8.18;100.00;101021.60;3395552;84;99071;-88
2021/11/12 16:50:34;;;;;;;73.60;33.60;;;;;;;8.04;100.00;101034.31;3391171;85;26979;-86
2021/11/12 16:55:55;;;;;;;82.08;34.78;;;;;;;8.01;100.00;101036.36;3372337;85;98939;-85
2021/11/12 17:16:35;;;;;;;75.93;31.07;;;;;;;7.89;100.00;101025.97;3383289;85;99220;-85
2021/11/12 17:48:11;;;;;;;73.55;33.08;;;;;;;7.67;100.00;101012.75;3389710;85;99013;-85
2021/11/12 18:04:00;;;;;;;84.03;35.08;;;;;;;7.50;100.00;101014.35;3394786;84;99394;-87
2021/11/12 18:25:45;;;;;;;66.33;29.85;;;;;;;7.28;100.00;100970.98;3387688;85;98971;-95
2021/11/12 21:47:14;;;;;;;58.17;25.30;;;;;;;6.34;100.00;100822.25;3328679;87;99167;-85
2021/11/12 21:52:15;;;;;;;59.15;25.50;;;;;;;6.28;100.00;100827.13;3384841;85;99073;-85
2021/11/12 21:57:16;;;;;;;55.57;23.83;;;;;;;6.26;100.00;100832.70;3388444;85;98924;-87
2021/11/12 22:02:20;;;;;;;55.00;22.53;;;;;;;6.23;100.00;100834.75;3376317;85;99419;-87
2021/11/12 22:07:22;;;;;;;54.85;23.10;;;;;;;6.20;100.00;100838.15;3388511;85;98992;-86
2021/11/12 22:12:23;;;;;;;54.48;22.45;;;;;;;6.17;100.00;100835.52;3377220;85;99086;-87
2021/11/12 22:17:24;;;;;;;59.20;26.85;;;;;;;6.17;100.00;100832.79;3339500;85;99453;-86
2021/11/12 22:22:25;;;;;;;58.83;26.23;;;;;;;6.18;100.00;100827.58;3313473;86;99384;-85
2021/11/12 22:27:26;;;;;;;59.00;26.57;;;;;;;6.18;100.00;100822.11;3397008;85;98139;-85
2021/11/12 22:32:27;;;;;;;57.43;26.20;;;;;;;6.15;100.00;100816.50;3379366;85;99259;-85
2021/11/12 22:37:28;;;;;;;70.90;32.40;;;;;;;6.15;100.00;100818.67;3381626;85;99100;-86
2021/11/12 22:42:30;;;;;;;85.25;38.98;;;;;;;6.18;100.00;100819.94;3372292;85;99146;-84
2021/11/12 22:47:30;;;;;;;76.20;36.33;;;;;;;6.15;100.00;100815.95;3376660;85;99428;-85
2021/11/12 22:52:31;;;;;;;71.27;35.77;;;;;;;6.10;100.00;100805.22;3366673;85;99037;-85
2021/11/12 22:57:32;;;;;;;86.10;40.87;;;;;;;6.07;100.00;100792.25;3385940;85;98986;-84
2021/11/12 23:02:33;;;;;;;84.23;40.77;;;;;;;6.02;100.00;100788.92;3371180;85;98863;-84
2021/11/12 23:07:34;;;;;;;88.52;41.48;;;;;;;6.02;100.00;100787.00;3371211;84;99005;-84
2021/11/12 23:12:35;;;;;;;87.60;38.67;;;;;;;6.03;100.00;100791.33;3381890;85;99104;-85
2021/11/12 23:17:36;;;;;;;86.07;41.70;;;;;;;6.01;100.00;100777.77;3374288;85;99261;-85
2021/11/12 23:22:38;;;;;;;89.47;41.70;;;;;;;5.96;99.83;100765.69;3379440;84;99246;-85
2021/11/12 23:27:39;;;;;;;82.82;40.38;;;;;;;5.93;100.00;100756.23;3385385;85;98580;-84
2021/11/12 23:32:41;;;;;;;87.37;40.00;;;;;;;5.91;100.00;100750.88;3370293;84;98956;-84
2021/11/12 23:37:41;;;;;;;90.67;42.37;;;;;;;5.85;99.74;100753.02;3375156;85;99141;-83
2021/11/12 23:42:44;;;;;;;99.93;42.90;;;;;;;5.78;99.79;100744.55;3376565;84;98962;-85
2021/11/12 23:47:45;;;;;;;94.83;41.90;;;;;;;5.73;99.67;100748.86;3373914;85;98853;-85
2021/11/12 23:52:47;;;;;;;94.60;41.47;;;;;;;5.72;99.98;100736.93;3377808;84;98931;-84
2021/11/12 23:57:48;;;;;;;101.22;41.30;;;;;;;5.67;99.79;100739.28;3391826;85;33101;-83
